Time;durP1;ratioP1;P1;durP2;ratioP2;P2;SDS_P1;SDS_P2;PMS_P1;PMS_P2;Temp;Humidity;BMP_temperature;BMP_pressure;BME280_temperature;BME280_humidity;BME280_pressure;Samples;Min_cycle;Max_cycle;Signal;HPM_P1;HPM_P2
2022/05/29 00:01:49;;;;;;;3.28;1.63;;;;;;;;;;4996867;28;20100;-75
2022/05/29 00:04:15;;;;;;;4.22;1.45;;;;;;;;;;4996801;28;20040;-75
2022/05/29 00:06:42;;;;;;;4.15;1.33;;;;;;;;;;5014388;28;20113;-75
2022/05/29 00:09:11;;;;;;;5.22;1.65;;;;;;;;;;5014426;28;20042;-76
2022/05/29 00:11:36;;;;;;;4.72;1.35;;;;;;;;;;5014432;28;20038;-75
2022/05/29 00:14:02;;;;;;;3.72;1.60;;;;;;;;;;5014321;28;20497;-76
2022/05/29 00:16:28;;;;;;;4.95;1.77;;;;;;;;;;5014367;28;20387;-75
2022/05/29 00:18:54;;;;;;;4.88;1.45;;;;;;;;;;5014465;28;20033;-75
2022/05/29 00:21:20;;;;;;;4.22;1.50;;;;;;;;;;5014134;28;20545;-75
2022/05/29 00:23:49;;;;;;;5.32;1.30;;;;;;;;;;5014316;28;20105;-75
2022/05/29 00:26:14;;;;;;;3.65;1.40;;;;;;;;;;5013760;28;20395;-75
2022/05/29 00:28:40;;;;;;;6.10;1.27;;;;;;;;;;5014079;28;20030;-76
2022/05/29 00:31:05;;;;;;;3.67;1.55;;;;;;;;;;4996249;28;20026;-76
2022/05/29 00:33:30;;;;;;;4.43;1.63;;;;;;;;;;5013986;28;20395;-75
2022/05/29 00:35:55;;;;;;;5.13;1.50;;;;;;;;;;5013945;28;20719;-76
2022/05/29 00:38:21;;;;;;;6.10;1.55;;;;;;;;;;5013922;28;20037;-75
2022/05/29 00:41:17;;;;;;;5.00;1.60;;;;;;;;;;4996104;28;20029;-76
2022/05/29 00:43:42;;;;;;;5.30;1.50;;;;;;;;;;5014179;28;20487;-76
2022/05/29 00:46:07;;;;;;;7.30;1.80;;;;;;;;;;5013727;28;20057;-75
2022/05/29 00:48:32;;;;;;;5.80;1.70;;;;;;;;;;5013682;28;20445;-75
2022/05/29 00:51:01;;;;;;;5.63;1.60;;;;;;;;;;5013614;28;20038;-75
2022/05/29 00:53:28;;;;;;;5.20;1.70;;;;;;;;;;5013975;28;20735;-75
2022/05/29 00:55:57;;;;;;;4.38;1.45;;;;;;;;;;4996013;28;20032;-75
2022/05/29 00:58:23;;;;;;;5.90;1.75;;;;;;;;;;5013508;28;20032;-77
2022/05/29 01:00:49;;;;;;;3.47;1.60;;;;;;;;;;5013501;28;20489;-76
2022/05/29 01:03:15;;;;;;;6.18;1.60;;;;;;;;;;4995999;28;20022;-76
2022/05/29 01:05:40;;;;;;;3.95;1.50;;;;;;;;;;5013533;28;20548;-76
2022/05/29 01:08:14;;;;;;;7.07;1.73;;;;;;;;;;5013671;28;20073;-76
2022/05/29 01:10:48;;;;;;;5.40;1.73;;;;;;;;;;5013749;28;20029;-75
2022/05/29 01:13:41;;;;;;;6.40;1.90;;;;;;;;;;5013448;28;20105;-75
2022/05/29 01:16:40;;;;;;;3.65;1.65;;;;;;;;;;4977345;28;20041;-76
2022/05/29 01:19:28;;;;;;;5.45;1.60;;;;;;;;;;5012808;28;20033;-75
2022/05/29 01:22:08;;;;;;;8.20;1.67;;;;;;;;;;5013595;28;20386;-76
2022/05/29 01:25:15;;;;;;;7.30;2.15;;;;;;;;;;5013405;28;20058;-76
2022/05/29 01:27:49;;;;;;;2.80;1.50;;;;;;;;;;4999930;28;20038;-75
2022/05/29 01:30:19;;;;;;;5.15;1.63;;;;;;;;;;5013170;28;20112;-75
2022/05/29 01:33:24;;;;;;;4.63;1.88;;;;;;;;;;5013188;28;20069;-76
2022/05/29 01:36:38;;;;;;;5.60;1.63;;;;;;;;;;4992204;28;20037;-75
2022/05/29 01:39:21;;;;;;;4.70;1.60;;;;;;;;;;5007386;28;20034;-75
2022/05/29 01:42:00;;;;;;;5.68;1.75;;;;;;;;;;4999541;28;20429;-75
2022/05/29 01:44:38;;;;;;;2.83;1.30;;;;;;;;;;4999510;28;20050;-76
2022/05/29 01:47:22;;;;;;;3.35;1.63;;;;;;;;;;5017021;28;20097;-76
2022/05/29 01:49:56;;;;;;;2.97;1.40;;;;;;;;;;5017350;28;20117;-77
2022/05/29 01:52:32;;;;;;;3.72;1.50;;;;;;;;;;5016826;28;20794;-75
2022/05/29 01:55:10;;;;;;;6.78;1.83;;;;;;;;;;5016965;28;20021;-76
2022/05/29 01:57:39;;;;;;;4.50;1.80;;;;;;;;;;4999820;28;20064;-75
2022/05/29 02:00:09;;;;;;;4.38;1.70;;;;;;;;;;5017037;28;20490;-76
2022/05/29 02:02:39;;;;;;;3.97;1.60;;;;;;;;;;5017038;28;20108;-76
2022/05/29 02:05:09;;;;;;;8.30;1.88;;;;;;;;;;5016683;28;20117;-75
2022/05/29 02:07:48;;;;;;;3.50;1.55;;;;;;;;;;4998908;28;20022;-75
2022/05/29 02:10:49;;;;;;;2.92;1.35;;;;;;;;;;5016595;28;20026;-75
2022/05/29 02:13:22;;;;;;;7.03;1.85;;;;;;;;;;4999686;28;20045;-76
2022/05/29 02:15:54;;;;;;;6.70;1.67;;;;;;;;;;5016629;28;20371;-75
2022/05/29 02:18:26;;;;;;;4.78;1.75;;;;;;;;;;5017056;28;20024;-75
2022/05/29 02:20:57;;;;;;;3.70;1.65;;;;;;;;;;4998769;28;20037;-75
2022/05/29 02:23:30;;;;;;;3.38;1.70;;;;;;;;;;5016734;28;20068;-76
2022/05/29 02:25:56;;;;;;;5.82;1.77;;;;;;;;;;5016311;28;20030;-75
2022/05/29 02:28:28;;;;;;;3.80;1.70;;;;;;;;;;5016516;28;20474;-74
2022/05/29 02:31:14;;;;;;;7.75;2.00;;;;;;;;;;5016209;28;20037;-75
2022/05/29 02:33:56;;;;;;;4.75;1.73;;;;;;;;;;5016227;28;20442;-75
2022/05/29 02:36:42;;;;;;;8.50;1.80;;;;;;;;;;5016458;28;20042;-75
2022/05/29 02:39:31;;;;;;;4.88;1.63;;;;;;;;;;5016345;28;20057;-75
2022/05/29 02:42:03;;;;;;;4.47;1.80;;;;;;;;;;5016134;28;20543;-75
2022/05/29 02:45:05;;;;;;;6.35;1.73;;;;;;;;;;4998363;28;20029;-75
2022/05/29 02:47:50;;;;;;;4.68;1.63;;;;;;;;;;5001846;28;20042;-75
2022/05/29 02:50:29;;;;;;;7.28;1.77;;;;;;;;;;5015646;28;20041;-74
2022/05/29 02:52:58;;;;;;;3.35;1.60;;;;;;;;;;4998341;28;20097;-75
2022/05/29 02:55:24;;;;;;;7.63;1.85;;;;;;;;;;5015661;28;20541;-75
2022/05/29 02:57:53;;;;;;;6.30;1.70;;;;;;;;;;5015768;28;20018;-76
2022/05/29 03:00:20;;;;;;;4.40;1.65;;;;;;;;;;5015907;28;20429;-76
2022/05/29 03:03:09;;;;;;;7.57;2.00;;;;;;;;;;5015648;28;20363;-76
2022/05/29 03:06:05;;;;;;;5.60;1.73;;;;;;;;;;4997951;28;20022;-75
2022/05/29 03:08:45;;;;;;;4.20;1.75;;;;;;;;;;5015909;28;20153;-75
2022/05/29 03:11:29;;;;;;;8.82;1.70;;;;;;;;;;5015590;28;20026;-76
2022/05/29 03:14:04;;;;;;;3.30;1.75;;;;;;;;;;5015787;28;20153;-76
2022/05/29 03:16:35;;;;;;;4.53;1.85;;;;;;;;;;5015405;28;20033;-76
2022/05/29 03:19:13;;;;;;;5.32;1.85;;;;;;;;;;5015300;28;20029;-75
2022/05/29 03:21:50;;;;;;;5.40;1.77;;;;;;;;;;4997634;28;20562;-75
2022/05/29 03:24:25;;;;;;;3.85;1.67;;;;;;;;;;5015776;28;20036;-75
2022/05/29 03:27:08;;;;;;;3.75;1.63;;;;;;;;;;4997685;28;20033;-76
2022/05/29 03:30:02;;;;;;;8.90;1.90;;;;;;;;;;5015422;28;20030;-76
2022/05/29 03:32:29;;;;;;;5.25;1.88;;;;;;;;;;5014933;28;20037;-75
2022/05/29 03:34:55;;;;;;;8.15;1.77;;;;;;;;;;5015355;28;20483;-75
2022/05/29 03:37:20;;;;;;;4.18;1.80;;;;;;;;;;5015258;28;20030;-76
2022/05/29 03:39:45;;;;;;;5.65;1.80;;;;;;;;;;5015281;28;20029;-75
2022/05/29 03:42:12;;;;;;;4.50;1.55;;;;;;;;;;5014880;28;20108;-75
2022/05/29 03:44:38;;;;;;;4.15;1.45;;;;;;;;;;5014832;28;20100;-76
2022/05/29 03:47:03;;;;;;;5.38;1.70;;;;;;;;;;5015041;28;20113;-76
2022/05/29 03:49:29;;;;;;;4.45;1.58;;;;;;;;;;5014845;28;20049;-75
2022/05/29 03:51:54;;;;;;;3.30;1.50;;;;;;;;;;5014906;28;20025;-76
2022/05/29 03:54:20;;;;;;;6.75;2.13;;;;;;;;;;5014900;28;20030;-76
2022/05/29 03:56:45;;;;;;;4.30;1.42;;;;;;;;;;5014709;28;20021;-76
2022/05/29 03:59:10;;;;;;;4.25;1.73;;;;;;;;;;4996968;28;20029;-76
2022/05/29 04:01:36;;;;;;;3.15;1.30;;;;;;;;;;5013646;28;20028;-75
2022/05/29 04:04:01;;;;;;;5.22;1.60;;;;;;;;;;5014779;28;20033;-76
2022/05/29 04:06:28;;;;;;;5.88;1.85;;;;;;;;;;5014641;28;20060;-76
2022/05/29 04:14:22;;;;;;;;;;;;;;;;;;5015370;28;19963;-76
2022/05/29 04:16:48;;;;;;;3.33;1.45;;;;;;;;;;5014326;28;19909;-75
2022/05/29 04:19:14;;;;;;;4.45;1.27;;;;;;;;;;5014658;28;20120;-75
2022/05/29 04:21:39;;;;;;;4.05;1.60;;;;;;;;;;5014263;28;20614;-76
2022/05/29 04:24:05;;;;;;;7.15;1.67;;;;;;;;;;5014142;28;20034;-76
2022/05/29 04:26:32;;;;;;;6.32;1.85;;;;;;;;;;5014056;28;20238;-76
2022/05/29 04:28:58;;;;;;;4.28;1.63;;;;;;;;;;5014384;28;20022;-77
2022/05/29 04:31:23;;;;;;;4.18;1.65;;;;;;;;;;5013883;28;20441;-76
2022/05/29 04:33:48;;;;;;;3.67;1.50;;;;;;;;;;5014601;28;20541;-75
2022/05/29 04:36:13;;;;;;;2.53;1.33;;;;;;;;;;5013962;28;20787;-76
2022/05/29 04:38:38;;;;;;;4.40;1.67;;;;;;;;;;5013927;28;20830;-77
2022/05/29 04:41:07;;;;;;;3.60;1.57;;;;;;;;;;5013749;28;20474;-76
2022/05/29 04:43:32;;;;;;;4.82;1.60;;;;;;;;;;5014208;28;20342;-76
2022/05/29 04:45:57;;;;;;;2.88;1.15;;;;;;;;;;5013790;28;20505;-77
2022/05/29 04:48:23;;;;;;;4.68;1.42;;;;;;;;;;5013755;28;20026;-76
2022/05/29 04:50:54;;;;;;;6.00;1.45;;;;;;;;;;5013764;28;20033;-76
2022/05/29 04:53:19;;;;;;;3.10;1.45;;;;;;;;;;5013927;28;20034;-75
2022/05/29 04:55:44;;;;;;;6.33;1.43;;;;;;;;;;5013701;28;20061;-75
2022/05/29 04:58:10;;;;;;;3.93;1.40;;;;;;;;;;4995915;28;20252;-76
2022/05/29 05:00:35;;;;;;;5.90;1.48;;;;;;;;;;4995910;28;20309;-76
2022/05/29 05:03:01;;;;;;;3.65;1.20;;;;;;;;;;5013887;28;20069;-76
2022/05/29 05:05:27;;;;;;;5.82;1.58;;;;;;;;;;5013520;28;20021;-76
2022/05/29 05:07:52;;;;;;;5.93;1.73;;;;;;;;;;4995823;28;20449;-76
2022/05/29 05:10:18;;;;;;;4.77;1.40;;;;;;;;;;5013425;28;20033;-75
2022/05/29 05:12:44;;;;;;;4.00;1.30;;;;;;;;;;5013262;28;20278;-75
2022/05/29 05:15:12;;;;;;;5.72;1.40;;;;;;;;;;5013413;28;20112;-76
2022/05/29 05:17:37;;;;;;;4.10;1.38;;;;;;;;;;5013407;28;20485;-75
2022/05/29 05:20:04;;;;;;;3.50;1.30;;;;;;;;;;5013631;28;20053;-76
2022/05/29 05:22:29;;;;;;;5.28;1.40;;;;;;;;;;4995656;28;20044;-75
2022/05/29 05:24:54;;;;;;;7.05;1.50;;;;;;;;;;5013312;28;20112;-76
2022/05/29 05:27:19;;;;;;;4.57;1.30;;;;;;;;;;5013215;28;20072;-75
2022/05/29 05:29:44;;;;;;;4.97;1.65;;;;;;;;;;5013440;28;20251;-76
2022/05/29 05:32:10;;;;;;;5.53;1.20;;;;;;;;;;5013309;28;20030;-77
2022/05/29 05:34:35;;;;;;;5.43;1.33;;;;;;;;;;5013680;28;20026;-76
2022/05/29 05:37:01;;;;;;;2.60;1.08;;;;;;;;;;4995534;28;20030;-75
2022/05/29 05:39:27;;;;;;;3.67;1.20;;;;;;;;;;5013104;28;20068;-75
2022/05/29 05:41:52;;;;;;;4.90;1.40;;;;;;;;;;4995471;28;20026;-76
2022/05/29 05:44:17;;;;;;;3.00;1.00;;;;;;;;;;5013336;28;20022;-76
2022/05/29 05:46:53;;;;;;;4.63;1.30;;;;;;;;;;5013046;28;20022;-76
2022/05/29 05:49:20;;;;;;;3.00;1.50;;;;;;;;;;4995556;28;20073;-75
2022/05/29 05:51:45;;;;;;;4.68;1.40;;;;;;;;;;5012994;28;20034;-75
2022/05/29 05:54:12;;;;;;;5.75;1.92;;;;;;;;;;5013322;28;20029;-76
2022/05/29 05:56:41;;;;;;;5.68;1.48;;;;;;;;;;5013083;28;20386;-76
2022/05/29 05:59:07;;;;;;;2.70;1.10;;;;;;;;;;5013218;28;20137;-77
2022/05/29 06:01:32;;;;;;;5.00;1.63;;;;;;;;;;5013089;28;20066;-76
2022/05/29 06:03:57;;;;;;;5.10;1.40;;;;;;;;;;4995341;28;20033;-76
2022/05/29 06:06:22;;;;;;;3.50;1.17;;;;;;;;;;5013221;28;20026;-77
2022/05/29 06:08:47;;;;;;;7.57;1.47;;;;;;;;;;5012826;28;20287;-77
2022/05/29 06:11:13;;;;;;;7.37;1.17;;;;;;;;;;5013041;28;20263;-77
2022/05/29 06:13:38;;;;;;;4.78;1.17;;;;;;;;;;5012870;28;20264;-77
2022/05/29 06:16:04;;;;;;;3.67;1.30;;;;;;;;;;5012837;28;20026;-77
2022/05/29 06:18:30;;;;;;;4.25;1.38;;;;;;;;;;5012765;28;20025;-77
2022/05/29 06:20:57;;;;;;;6.03;1.27;;;;;;;;;;5013421;28;20521;-75
2022/05/29 06:23:23;;;;;;;4.43;1.20;;;;;;;;;;4995340;28;20032;-77
2022/05/29 06:25:48;;;;;;;3.33;1.30;;;;;;;;;;5015578;28;20101;-76
2022/05/29 06:28:13;;;;;;;4.23;1.00;;;;;;;;;;5016378;28;20032;-77
2022/05/29 06:30:40;;;;;;;5.15;1.20;;;;;;;;;;4998823;28;20276;-77
2022/05/29 06:33:05;;;;;;;5.38;1.30;;;;;;;;;;5016319;28;20498;-76
2022/05/29 06:35:30;;;;;;;4.20;1.50;;;;;;;;;;5016602;28;20036;-77
2022/05/29 06:37:55;;;;;;;4.35;1.45;;;;;;;;;;5016711;28;20346;-76
2022/05/29 06:40:21;;;;;;;2.30;1.13;;;;;;;;;;5016124;28;20030;-77
2022/05/29 06:42:46;;;;;;;5.88;1.30;;;;;;;;;;5016116;28;20394;-76
2022/05/29 06:45:12;;;;;;;3.80;1.20;;;;;;;;;;4998498;28;20467;-77
2022/05/29 06:47:39;;;;;;;5.60;1.38;;;;;;;;;;5015946;28;20021;-77
2022/05/29 06:50:05;;;;;;;3.22;0.90;;;;;;;;;;5016285;28;20156;-77
2022/05/29 06:52:31;;;;;;;3.45;1.10;;;;;;;;;;5016498;28;20041;-77
2022/05/29 06:54:57;;;;;;;5.63;1.13;;;;;;;;;;4998162;28;20491;-77
2022/05/29 06:57:40;;;;;;;4.78;1.30;;;;;;;;;;5015677;28;20018;-76
2022/05/29 07:08:20;;;;;;;1.95;0.90;;;;;;;;;;5015974;28;20040;-76
2022/05/29 07:10:46;;;;;;;5.35;1.20;;;;;;;;;;5015620;28;20033;-76
2022/05/29 07:13:11;;;;;;;4.57;1.20;;;;;;;;;;5015628;28;20030;-77
2022/05/29 07:15:37;;;;;;;5.30;1.08;;;;;;;;;;5015423;28;20078;-76
2022/05/29 07:18:03;;;;;;;5.38;1.20;;;;;;;;;;5015698;28;20108;-76
2022/05/29 07:20:29;;;;;;;3.67;1.25;;;;;;;;;;5015578;28;20029;-77
2022/05/29 07:22:54;;;;;;;4.78;1.35;;;;;;;;;;5015673;28;20022;-77
2022/05/29 07:25:19;;;;;;;5.53;1.40;;;;;;;;;;4997881;28;20032;-77
2022/05/29 07:27:45;;;;;;;2.65;1.10;;;;;;;;;;5015097;28;20101;-76
2022/05/29 07:30:11;;;;;;;3.87;1.20;;;;;;;;;;5015281;28;20041;-76
2022/05/29 07:32:36;;;;;;;6.68;1.08;;;;;;;;;;5015189;28;20286;-75
2022/05/29 07:35:01;;;;;;;5.78;1.10;;;;;;;;;;5015115;28;20375;-76
2022/05/29 07:37:26;;;;;;;4.80;1.17;;;;;;;;;;5014967;28;20068;-77
2022/05/29 07:39:53;;;;;;;5.30;1.05;;;;;;;;;;5015147;28;20025;-76
2022/05/29 07:45:05;;;;;;;5.13;1.40;;;;;;;;;;5015555;28;20064;-76
2022/05/29 07:47:36;;;;;;;5.38;1.33;;;;;;;;;;5015053;28;20018;-76
2022/05/29 07:50:01;;;;;;;5.55;1.30;;;;;;;;;;5015424;28;20038;-76
2022/05/29 07:52:27;;;;;;;5.70;1.20;;;;;;;;;;5014945;28;20087;-76
2022/05/29 07:54:52;;;;;;;3.92;1.15;;;;;;;;;;5015009;28;20030;-77
2022/05/29 07:57:18;;;;;;;3.85;1.25;;;;;;;;;;5015355;28;20115;-76
2022/05/29 07:59:44;;;;;;;3.83;1.08;;;;;;;;;;5014929;28;20475;-76
2022/05/29 08:02:09;;;;;;;5.17;1.30;;;;;;;;;;5014779;28;20033;-76
2022/05/29 08:04:35;;;;;;;4.40;1.02;;;;;;;;;;5014579;28;20335;-76
2022/05/29 08:07:00;;;;;;;4.25;1.10;;;;;;;;;;5014924;28;20053;-77
2022/05/29 08:09:25;;;;;;;3.85;1.00;;;;;;;;;;5014374;28;20105;-76
2022/05/29 08:11:51;;;;;;;4.85;1.10;;;;;;;;;;5014395;28;20429;-77
2022/05/29 08:14:16;;;;;;;3.58;1.00;;;;;;;;;;5014769;28;20071;-78
2022/05/29 08:16:41;;;;;;;6.10;1.13;;;;;;;;;;5014332;28;20065;-77
2022/05/29 08:19:07;;;;;;;3.60;1.17;;;;;;;;;;5014430;28;20251;-75
2022/05/29 08:21:33;;;;;;;4.20;1.35;;;;;;;;;;5014644;28;20018;-76
2022/05/29 08:32:10;;;;;;;4.30;1.20;;;;;;;;;;5014770;28;20125;-77
2022/05/29 08:34:35;;;;;;;5.27;1.07;;;;;;;;;;5014324;28;20065;-77
2022/05/29 08:37:01;;;;;;;6.60;1.00;;;;;;;;;;5014067;28;20268;-75
2022/05/29 08:39:26;;;;;;;3.47;0.98;;;;;;;;;;4996571;28;20401;-76
2022/05/29 08:41:53;;;;;;;2.30;0.87;;;;;;;;;;4996921;28;20108;-76
2022/05/29 08:44:29;;;;;;;6.35;1.10;;;;;;;;;;4996639;28;20268;-76
2022/05/29 08:47:01;;;;;;;6.03;1.23;;;;;;;;;;5013675;28;20026;-77
2022/05/29 08:49:29;;;;;;;5.28;1.13;;;;;;;;;;5014464;28;20054;-76
2022/05/29 08:52:04;;;;;;;4.72;1.00;;;;;;;;;;5014152;28;20141;-76
2022/05/29 08:54:40;;;;;;;5.63;1.02;;;;;;;;;;5014114;28;20021;-76
2022/05/29 08:57:37;;;;;;;7.50;1.20;;;;;;;;;;4996530;28;20014;-76
2022/05/29 09:00:18;;;;;;;2.85;1.00;;;;;;;;;;4996429;28;20033;-77
2022/05/29 09:03:03;;;;;;;5.40;1.10;;;;;;;;;;5014355;28;20493;-75
2022/05/29 09:05:44;;;;;;;3.45;1.05;;;;;;;;;;5013481;28;20026;-76
2022/05/29 09:08:21;;;;;;;2.88;1.20;;;;;;;;;;5013842;28;20376;-75
2022/05/29 09:10:52;;;;;;;3.08;1.30;;;;;;;;;;5013642;28;20034;-76
2022/05/29 09:13:28;;;;;;;4.80;1.10;;;;;;;;;;5013897;28;20479;-76
2022/05/29 09:15:59;;;;;;;4.55;1.08;;;;;;;;;;4996012;28;20489;-76
2022/05/29 09:18:36;;;;;;;4.03;1.45;;;;;;;;;;5013778;28;20101;-77
2022/05/29 09:21:16;;;;;;;6.18;1.17;;;;;;;;;;5013835;28;20354;-75
2022/05/29 09:24:04;;;;;;;2.85;1.00;;;;;;;;;;4995850;28;20045;-76
2022/05/29 09:26:35;;;;;;;4.75;1.10;;;;;;;;;;5013761;28;20029;-77
2022/05/29 09:29:04;;;;;;;3.08;1.20;;;;;;;;;;5013701;28;20052;-76
2022/05/29 09:31:31;;;;;;;3.03;0.98;;;;;;;;;;5013189;28;20057;-77
2022/05/29 09:33:57;;;;;;;4.75;1.10;;;;;;;;;;5013541;28;20057;-76
2022/05/29 09:36:31;;;;;;;5.43;1.17;;;;;;;;;;5013354;28;20490;-76
2022/05/29 09:39:10;;;;;;;4.03;0.80;;;;;;;;;;5013336;28;20028;-74
2022/05/29 09:41:55;;;;;;;5.85;1.20;;;;;;;;;;5013241;28;20030;-75
2022/05/29 09:44:22;;;;;;;7.57;1.20;;;;;;;;;;5014373;28;20462;-81
2022/05/29 09:46:50;;;;;;;3.30;1.35;;;;;;;;;;5014403;28;20030;-75
2022/05/29 09:49:42;;;;;;;4.35;0.90;;;;;;;;;;5015013;28;20122;-78
2022/05/29 09:52:16;;;;;;;3.58;1.10;;;;;;;;;;5014173;28;20083;-76
2022/05/29 09:54:54;;;;;;;;;;;;;;;;;;5014680;28;20422;-75
2022/05/29 09:57:26;;;;;;;4.40;1.35;;;;;;;;;;5013874;28;20389;-75
2022/05/29 10:00:02;;;;;;;4.53;0.88;;;;;;;;;;5015132;28;20096;-74
2022/05/29 10:02:31;;;;;;;3.80;1.17;;;;;;;;;;4999785;28;20030;-74
2022/05/29 10:05:00;;;;;;;1.85;0.90;;;;;;;;;;5018003;28;20022;-76
2022/05/29 10:07:33;;;;;;;3.75;1.10;;;;;;;;;;5017432;28;20025;-76
2022/05/29 10:10:01;;;;;;;3.08;1.00;;;;;;;;;;5017139;28;20029;-79
2022/05/29 10:12:45;;;;;;;5.20;1.13;;;;;;;;;;5017631;28;20556;-77
2022/05/29 10:15:26;;;;;;;3.20;0.85;;;;;;;;;;5017688;28;20033;-78
2022/05/29 10:17:58;;;;;;;2.28;0.88;;;;;;;;;;5018087;28;20028;-78
2022/05/29 10:20:37;;;;;;;4.40;1.23;;;;;;;;;;5017697;28;20032;-77
2022/05/29 10:23:07;;;;;;;5.60;1.20;;;;;;;;;;5017543;28;20109;-77
2022/05/29 10:25:57;;;;;;;2.75;1.13;;;;;;;;;;5017521;28;20048;-76
2022/05/29 10:28:29;;;;;;;2.10;0.73;;;;;;;;;;5016514;28;20038;-77
2022/05/29 10:31:00;;;;;;;3.30;1.13;;;;;;;;;;5017218;28;20335;-77
2022/05/29 10:33:29;;;;;;;4.78;1.23;;;;;;;;;;5017527;28;20037;-77
2022/05/29 10:36:09;;;;;;;4.97;1.17;;;;;;;;;;5017165;28;20109;-77
2022/05/29 10:38:35;;;;;;;3.13;0.98;;;;;;;;;;4999364;28;20026;-77
2022/05/29 10:41:03;;;;;;;2.92;0.70;;;;;;;;;;5016877;28;20034;-78
2022/05/29 10:43:45;;;;;;;4.13;1.20;;;;;;;;;;4999331;28;20026;-78
2022/05/29 10:46:21;;;;;;;3.90;1.20;;;;;;;;;;5016794;28;20080;-77
2022/05/29 10:49:33;;;;;;;3.85;1.00;;;;;;;;;;4999590;28;20026;-77
2022/05/29 10:52:26;;;;;;;7.63;1.10;;;;;;;;;;4972963;28;20042;-77
2022/05/29 10:55:18;;;;;;;4.45;1.23;;;;;;;;;;5016439;28;20021;-77
2022/05/29 10:58:08;;;;;;;1.90;0.90;;;;;;;;;;5016735;28;20115;-78
2022/05/29 11:00:37;;;;;;;5.88;1.17;;;;;;;;;;5016266;28;20041;-76
2022/05/29 11:03:33;;;;;;;3.05;1.00;;;;;;;;;;5016379;28;20034;-77
2022/05/29 11:06:30;;;;;;;4.05;1.15;;;;;;;;;;5016095;28;20030;-77
2022/05/29 11:09:22;;;;;;;3.22;0.98;;;;;;;;;;4998454;28;20033;-77
2022/05/29 11:11:57;;;;;;;3.95;1.00;;;;;;;;;;5015548;28;20080;-78
2022/05/29 11:14:42;;;;;;;2.47;1.02;;;;;;;;;;5016070;28;20034;-77
2022/05/29 11:17:22;;;;;;;4.80;1.08;;;;;;;;;;4998565;28;20117;-78
2022/05/29 11:20:01;;;;;;;2.83;1.00;;;;;;;;;;4998098;28;20545;-78
2022/05/29 11:22:57;;;;;;;1.58;0.90;;;;;;;;;;5015728;28;20029;-78
2022/05/29 11:25:47;;;;;;;2.40;1.10;;;;;;;;;;4970978;28;20073;-76
2022/05/29 11:28:49;;;;;;;3.22;1.00;;;;;;;;;;4998223;28;20421;-77
2022/05/29 11:31:30;;;;;;;3.15;1.00;;;;;;;;;;5015670;28;20046;-77
2022/05/29 11:34:28;;;;;;;1.77;0.75;;;;;;;;;;5016333;28;20037;-78
2022/05/29 11:37:31;;;;;;;3.72;1.02;;;;;;;;;;5011475;28;20069;-77
2022/05/29 11:40:00;;;;;;;4.22;0.95;;;;;;;;;;4997874;28;20022;-77
2022/05/29 11:42:47;;;;;;;2.20;1.00;;;;;;;;;;5015213;28;20026;-76
2022/05/29 11:45:17;;;;;;;2.78;0.98;;;;;;;;;;5017530;28;20030;-77
2022/05/29 11:51:15;;;;;;;4.53;1.08;;;;;;;;;;5018042;28;20033;-77
2022/05/29 11:53:49;;;;;;;4.15;1.00;;;;;;;;;;5015449;28;20029;-77
2022/05/29 11:56:22;;;;;;;4.93;1.05;;;;;;;;;;5014887;28;20087;-77
2022/05/29 11:58:59;;;;;;;3.20;1.00;;;;;;;;;;5014960;28;20022;-77
2022/05/29 12:01:37;;;;;;;2.63;1.17;;;;;;;;;;4996962;28;20393;-76
2022/05/29 12:04:28;;;;;;;1.67;0.90;;;;;;;;;;4996922;28;20033;-75
2022/05/29 12:07:14;;;;;;;3.20;0.90;;;;;;;;;;5014846;28;20113;-76
2022/05/29 12:09:49;;;;;;;4.95;0.88;;;;;;;;;;5014995;28;20030;-76
2022/05/29 12:12:25;;;;;;;2.80;0.90;;;;;;;;;;5014365;28;20486;-77
2022/05/29 12:14:56;;;;;;;1.65;0.90;;;;;;;;;;4996708;28;20447;-76
2022/05/29 12:17:38;;;;;;;3.75;1.00;;;;;;;;;;5014931;28;20422;-77
2022/05/29 12:20:15;;;;;;;2.50;0.98;;;;;;;;;;5014396;28;20110;-76
2022/05/29 12:22:55;;;;;;;2.47;1.00;;;;;;;;;;5013778;28;20026;-77
2022/05/29 12:25:25;;;;;;;4.03;1.05;;;;;;;;;;5014264;28;20393;-77
2022/05/29 12:27:52;;;;;;;3.65;1.00;;;;;;;;;;5014200;28;20029;-76
2022/05/29 12:30:32;;;;;;;2.15;0.73;;;;;;;;;;4996493;28;20026;-75
2022/05/29 12:33:14;;;;;;;4.88;0.95;;;;;;;;;;5014025;28;20057;-77
2022/05/29 12:35:51;;;;;;;2.08;0.70;;;;;;;;;;4996779;28;20109;-77
2022/05/29 12:38:57;;;;;;;2.65;0.90;;;;;;;;;;5014052;28;20018;-77
2022/05/29 12:41:49;;;;;;;1.73;0.80;;;;;;;;;;5014267;28;20025;-77
2022/05/29 12:44:27;;;;;;;2.35;0.77;;;;;;;;;;5014315;28;20114;-77
2022/05/29 12:47:09;;;;;;;3.70;1.17;;;;;;;;;;5013647;28;20033;-77
2022/05/29 12:49:35;;;;;;;3.25;0.90;;;;;;;;;;5014200;28;20172;-76
2022/05/29 12:52:13;;;;;;;4.67;0.90;;;;;;;;;;5013672;28;20483;-77
2022/05/29 12:54:47;;;;;;;2.13;0.93;;;;;;;;;;4996089;28;20557;-77
2022/05/29 12:57:24;;;;;;;2.80;0.90;;;;;;;;;;5013880;28;20036;-77
2022/05/29 13:00:11;;;;;;;1.73;0.73;;;;;;;;;;5013801;28;20021;-77
2022/05/29 13:03:07;;;;;;;0.65;0.57;;;;;;;;;;5013749;28;20026;-78
2022/05/29 13:05:51;;;;;;;2.75;1.00;;;;;;;;;;5013384;28;20029;-77
2022/05/29 13:09:02;;;;;;;3.67;1.17;;;;;;;;;;5013576;28;20018;-78
2022/05/29 13:11:31;;;;;;;2.80;0.88;;;;;;;;;;4989678;28;20030;-77
2022/05/29 13:14:00;;;;;;;4.88;0.82;;;;;;;;;;5013632;28;20497;-77
2022/05/29 13:16:29;;;;;;;5.35;1.00;;;;;;;;;;5013346;28;20053;-77
2022/05/29 13:19:15;;;;;;;1.45;0.70;;;;;;;;;;5013269;28;20022;-77
2022/05/29 13:22:03;;;;;;;2.55;0.90;;;;;;;;;;5013442;28;20028;-77
2022/05/29 13:24:36;;;;;;;2.83;1.10;;;;;;;;;;5013571;28;20398;-77
2022/05/29 13:27:11;;;;;;;4.75;1.00;;;;;;;;;;4995634;28;20402;-77
2022/05/29 13:29:50;;;;;;;2.60;0.85;;;;;;;;;;5013399;28;20104;-77
2022/05/29 13:32:15;;;;;;;1.63;0.98;;;;;;;;;;5013324;28;20029;-77
2022/05/29 13:34:42;;;;;;;1.73;0.80;;;;;;;;;;5016678;28;20096;-77
2022/05/29 13:37:20;;;;;;;3.17;0.90;;;;;;;;;;5017552;28;20068;-78
2022/05/29 13:40:00;;;;;;;2.90;0.90;;;;;;;;;;5017537;28;20049;-77
2022/05/29 13:42:27;;;;;;;3.60;1.20;;;;;;;;;;5017306;28;20033;-78
2022/05/29 13:44:53;;;;;;;1.85;0.90;;;;;;;;;;5016999;28;20029;-77
2022/05/29 13:47:18;;;;;;;1.70;0.88;;;;;;;;;;4999382;28;20022;-77
2022/05/29 13:49:45;;;;;;;0.87;0.77;;;;;;;;;;5017065;28;20022;-77
2022/05/29 13:52:16;;;;;;;2.30;0.90;;;;;;;;;;5017031;28;20030;-77
2022/05/29 13:54:44;;;;;;;3.45;0.77;;;;;;;;;;5017389;28;20022;-77
2022/05/29 14:03:57;;;;;;;2.55;1.08;;;;;;;;;;5016933;28;20486;-77
2022/05/29 14:05:47;;;;;;;2.63;1.23;;;;;;;;;;5017045;28;20032;-77
2022/05/29 14:08:18;;;;;;;1.95;0.80;;;;;;;;;;5016679;28;20032;-77
2022/05/29 14:10:52;;;;;;;2.53;0.90;;;;;;;;;;5016629;28;20026;-78
2022/05/29 14:13:35;;;;;;;5.22;1.02;;;;;;;;;;4999353;28;20037;-76
2022/05/29 14:16:09;;;;;;;4.32;0.90;;;;;;;;;;4998935;28;20434;-78
2022/05/29 14:18:42;;;;;;;2.78;0.90;;;;;;;;;;5016645;28;20025;-77
2022/05/29 14:21:21;;;;;;;2.72;1.00;;;;;;;;;;5016890;28;20426;-78
2022/05/29 14:24:15;;;;;;;2.78;1.17;;;;;;;;;;5016618;28;20022;-78
2022/05/29 14:26:53;;;;;;;1.40;0.93;;;;;;;;;;4929795;28;20123;-77
2022/05/29 14:29:36;;;;;;;4.03;1.20;;;;;;;;;;5016339;28;20026;-77
2022/05/29 14:32:46;;;;;;;2.35;1.05;;;;;;;;;;4998579;28;20164;-77
2022/05/29 14:35:29;;;;;;;3.10;1.05;;;;;;;;;;5016461;28;20387;-77
2022/05/29 14:38:04;;;;;;;3.05;1.30;;;;;;;;;;5017214;28;20422;-78
2022/05/29 14:40:47;;;;;;;2.00;0.88;;;;;;;;;;5016592;28;20022;-77
2022/05/29 14:43:16;;;;;;;1.88;0.98;;;;;;;;;;5016329;28;20017;-76
2022/05/29 14:46:11;;;;;;;3.03;1.10;;;;;;;;;;5015132;28;20034;-76
2022/05/29 14:48:42;;;;;;;2.22;1.02;;;;;;;;;;5016057;28;20018;-76
2022/05/29 14:51:37;;;;;;;1.75;0.90;;;;;;;;;;5016087;28;20032;-76
2022/05/29 14:54:11;;;;;;;3.40;1.10;;;;;;;;;;4998317;28;20030;-76
2022/05/29 14:56:41;;;;;;;2.80;1.20;;;;;;;;;;5015698;28;20475;-76
2022/05/29 14:59:19;;;;;;;2.80;1.20;;;;;;;;;;4998105;28;20053;-77
2022/05/29 15:01:46;;;;;;;2.63;0.90;;;;;;;;;;4998376;28;20463;-77
2022/05/29 15:04:11;;;;;;;2.08;1.17;;;;;;;;;;5015840;28;20396;-77
2022/05/29 15:12:22;;;;;;;2.40;1.00;;;;;;;;;;5015304;28;20080;-77
2022/05/29 15:14:47;;;;;;;2.67;1.10;;;;;;;;;;5015466;28;20036;-77
2022/05/29 15:17:22;;;;;;;2.60;0.90;;;;;;;;;;4997488;28;20021;-77
2022/05/29 15:25:21;;;;;;;2.67;1.02;;;;;;;;;;5015496;28;20135;-77
2022/05/29 15:27:56;;;;;;;2.58;1.00;;;;;;;;;;5015246;28;20189;-77
2022/05/29 15:30:24;;;;;;;2.78;1.10;;;;;;;;;;5014949;28;20034;-76
2022/05/29 15:32:55;;;;;;;2.67;1.10;;;;;;;;;;4997444;28;20471;-76
2022/05/29 15:35:34;;;;;;;6.40;1.08;;;;;;;;;;4997665;28;20021;-76
2022/05/29 15:38:18;;;;;;;3.47;1.10;;;;;;;;;;4997502;28;20025;-76
2022/05/29 15:41:02;;;;;;;;;;;;;;;;;;4997780;28;20033;-76
2022/05/29 15:43:40;;;;;;;2.92;1.10;;;;;;;;;;5014824;28;19910;-77
2022/05/29 15:46:25;;;;;;;1.30;0.98;;;;;;;;;;5015288;28;20393;-77
2022/05/29 15:49:12;;;;;;;4.13;1.85;;;;;;;;;;5014857;28;20475;-75
2022/05/29 15:51:58;;;;;;;3.08;2.17;;;;;;;;;;5015139;28;20115;-76
2022/05/29 15:54:45;;;;;;;3.78;1.90;;;;;;;;;;5017943;28;20085;-75
2022/05/29 15:57:41;;;;;;;4.03;1.40;;;;;;;;;;5010534;28;20099;-75
2022/05/29 16:00:10;;;;;;;3.50;1.10;;;;;;;;;;5029630;28;20021;-76
2022/05/29 16:02:53;;;;;;;1.55;0.90;;;;;;;;;;5028362;28;20026;-76
2022/05/29 16:05:36;;;;;;;1.42;1.00;;;;;;;;;;5029654;28;20105;-74
2022/05/29 16:08:33;;;;;;;3.28;1.25;;;;;;;;;;5029486;28;20032;-76